sensor_id;sensor_type;location;lat;lon;timestamp;P1;durP1;ratioP1;P2;durP2;ratioP2
67930;SDS011;54726;52.000;5.954;2022-08-01T00:00:42;16.42;;;7.32;;
67930;SDS011;54726;52.000;5.954;2022-08-01T00:01:42;14.80;;;7.03;;
67930;SDS011;54726;52.000;5.954;2022-08-01T00:02:43;10.40;;;5.97;;
67930;SDS011;54726;52.000;5.954;2022-08-01T00:03:43;11.35;;;6.47;;
67930;SDS011;54726;52.000;5.954;2022-08-01T00:04:43;11.32;;;6.28;;
67930;SDS011;54726;52.000;5.954;2022-08-01T00:05:44;9.57;;;6.30;;
67930;SDS011;54726;52.000;5.954;2022-08-01T00:06:44;11.05;;;6.55;;
67930;SDS011;54726;52.000;5.954;2022-08-01T00:07:45;11.52;;;6.32;;
67930;SDS011;54726;52.000;5.954;2022-08-01T00:08:45;11.95;;;6.90;;
67930;SDS011;54726;52.000;5.954;2022-08-01T00:09:46;12.63;;;6.10;;
67930;SDS011;54726;52.000;5.954;2022-08-01T00:10:47;9.73;;;6.30;;
67930;SDS011;54726;52.000;5.954;2022-08-01T00:11:48;10.43;;;6.07;;
67930;SDS011;54726;52.000;5.954;2022-08-01T00:12:48;10.00;;;6.35;;
67930;SDS011;54726;52.000;5.954;2022-08-01T00:13:49;11.45;;;7.05;;
67930;SDS011;54726;52.000;5.954;2022-08-01T00:14:49;11.82;;;6.78;;
67930;SDS011;54726;52.000;5.954;2022-08-01T00:15:50;10.27;;;6.88;;
67930;SDS011;54726;52.000;5.954;2022-08-01T00:16:50;14.10;;;6.93;;
67930;SDS011;54726;52.000;5.954;2022-08-01T00:17:51;14.00;;;6.72;;
67930;SDS011;54726;52.000;5.954;2022-08-01T00:18:51;12.50;;;6.95;;
67930;SDS011;54726;52.000;5.954;2022-08-01T00:19:52;13.73;;;6.32;;
67930;SDS011;54726;52.000;5.954;2022-08-01T00:20:52;14.02;;;7.38;;
67930;SDS011;54726;52.000;5.954;2022-08-01T00:21:53;12.73;;;6.65;;
67930;SDS011;54726;52.000;5.954;2022-08-01T00:22:53;11.82;;;6.88;;
67930;SDS011;54726;52.000;5.954;2022-08-01T00:23:54;12.15;;;6.97;;
67930;SDS011;54726;52.000;5.954;2022-08-01T00:24:54;13.13;;;7.03;;
67930;SDS011;54726;52.000;5.954;2022-08-01T00:25:56;12.52;;;6.85;;
67930;SDS011;54726;52.000;5.954;2022-08-01T00:26:56;12.90;;;6.75;;
67930;SDS011;54726;52.000;5.954;2022-08-01T00:27:57;11.82;;;6.50;;
67930;SDS011;54726;52.000;5.954;2022-08-01T00:28:57;10.73;;;6.03;;
67930;SDS011;54726;52.000;5.954;2022-08-01T00:29:58;9.90;;;6.45;;
67930;SDS011;54726;52.000;5.954;2022-08-01T00:30:59;11.60;;;6.25;;
67930;SDS011;54726;52.000;5.954;2022-08-01T00:31:59;10.07;;;6.18;;
67930;SDS011;54726;52.000;5.954;2022-08-01T00:33:00;9.60;;;6.20;;
67930;SDS011;54726;52.000;5.954;2022-08-01T00:34:00;9.52;;;6.20;;
67930;SDS011;54726;52.000;5.954;2022-08-01T00:35:00;10.57;;;6.25;;
67930;SDS011;54726;52.000;5.954;2022-08-01T00:36:01;11.55;;;6.05;;
67930;SDS011;54726;52.000;5.954;2022-08-01T00:37:01;11.80;;;6.82;;
67930;SDS011;54726;52.000;5.954;2022-08-01T00:38:02;11.57;;;6.70;;
67930;SDS011;54726;52.000;5.954;2022-08-01T00:39:02;10.45;;;6.50;;
67930;SDS011;54726;52.000;5.954;2022-08-01T00:40:03;12.88;;;6.15;;
67930;SDS011;54726;52.000;5.954;2022-08-01T00:41:06;9.63;;;6.18;;
67930;SDS011;54726;52.000;5.954;2022-08-01T00:42:06;12.23;;;5.95;;
67930;SDS011;54726;52.000;5.954;2022-08-01T00:43:09;11.23;;;6.80;;
67930;SDS011;54726;52.000;5.954;2022-08-01T00:44:09;9.77;;;6.88;;
67930;SDS011;54726;52.000;5.954;2022-08-01T00:45:10;8.82;;;5.60;;
67930;SDS011;54726;52.000;5.954;2022-08-01T00:46:10;10.38;;;5.10;;
67930;SDS011;54726;52.000;5.954;2022-08-01T00:47:11;10.18;;;6.10;;
67930;SDS011;54726;52.000;5.954;2022-08-01T00:48:11;11.13;;;5.85;;
67930;SDS011;54726;52.000;5.954;2022-08-01T00:49:11;11.13;;;6.43;;
67930;SDS011;54726;52.000;5.954;2022-08-01T00:50:12;14.20;;;6.40;;
67930;SDS011;54726;52.000;5.954;2022-08-01T00:51:12;8.50;;;5.32;;
67930;SDS011;54726;52.000;5.954;2022-08-01T00:52:13;14.02;;;6.70;;
67930;SDS011;54726;52.000;5.954;2022-08-01T00:53:13;10.27;;;5.57;;
67930;SDS011;54726;52.000;5.954;2022-08-01T00:54:14;9.90;;;5.95;;
67930;SDS011;54726;52.000;5.954;2022-08-01T00:55:15;8.40;;;6.13;;
67930;SDS011;54726;52.000;5.954;2022-08-01T00:56:20;9.15;;;6.10;;
67930;SDS011;54726;52.000;5.954;2022-08-01T00:57:21;7.53;;;5.47;;
67930;SDS011;54726;52.000;5.954;2022-08-01T00:58:22;10.35;;;5.85;;
67930;SDS011;54726;52.000;5.954;2022-08-01T00:59:23;10.00;;;5.80;;
67930;SDS011;54726;52.000;5.954;2022-08-01T01:00:23;13.10;;;5.97;;
67930;SDS011;54726;52.000;5.954;2022-08-01T01:01:24;10.07;;;5.50;;
67930;SDS011;54726;52.000;5.954;2022-08-01T01:02:25;11.27;;;5.97;;
67930;SDS011;54726;52.000;5.954;2022-08-01T01:03:25;11.25;;;5.45;;
67930;SDS011;54726;52.000;5.954;2022-08-01T01:04:26;10.35;;;6.03;;
67930;SDS011;54726;52.000;5.954;2022-08-01T01:05:26;16.20;;;5.85;;
67930;SDS011;54726;52.000;5.954;2022-08-01T01:06:28;10.25;;;6.18;;
67930;SDS011;54726;52.000;5.954;2022-08-01T01:07:40;12.55;;;6.90;;
67930;SDS011;54726;52.000;5.954;2022-08-01T01:08:49;10.85;;;6.35;;
67930;SDS011;54726;52.000;5.954;2022-08-01T01:10:00;11.88;;;6.25;;
67930;SDS011;54726;52.000;5.954;2022-08-01T01:11:09;14.60;;;7.32;;
67930;SDS011;54726;52.000;5.954;2022-08-01T01:12:22;11.88;;;6.93;;
67930;SDS011;54726;52.000;5.954;2022-08-01T01:13:31;13.15;;;6.72;;
67930;SDS011;54726;52.000;5.954;2022-08-01T01:14:38;9.13;;;6.53;;
67930;SDS011;54726;52.000;5.954;2022-08-01T01:15:43;11.82;;;7.40;;
67930;SDS011;54726;52.000;5.954;2022-08-01T01:16:47;12.93;;;7.60;;
67930;SDS011;54726;52.000;5.954;2022-08-01T01:17:52;11.32;;;7.05;;
67930;SDS011;54726;52.000;5.954;2022-08-01T01:18:57;10.93;;;7.13;;
67930;SDS011;54726;52.000;5.954;2022-08-01T01:20:01;12.15;;;7.20;;
67930;SDS011;54726;52.000;5.954;2022-08-01T01:21:06;14.90;;;7.80;;
67930;SDS011;54726;52.000;5.954;2022-08-01T01:22:18;11.82;;;7.80;;
67930;SDS011;54726;52.000;5.954;2022-08-01T01:23:29;14.38;;;7.65;;
67930;SDS011;54726;52.000;5.954;2022-08-01T01:24:40;11.05;;;7.43;;
67930;SDS011;54726;52.000;5.954;2022-08-01T01:26:07;13.15;;;6.95;;
67930;SDS011;54726;52.000;5.954;2022-08-01T01:27:21;10.75;;;7.10;;
67930;SDS011;54726;52.000;5.954;2022-08-01T01:28:33;11.43;;;7.10;;
67930;SDS011;54726;52.000;5.954;2022-08-01T01:29:38;12.02;;;7.55;;
67930;SDS011;54726;52.000;5.954;2022-08-01T01:30:41;13.98;;;7.40;;
67930;SDS011;54726;52.000;5.954;2022-08-01T01:31:46;12.05;;;7.07;;
67930;SDS011;54726;52.000;5.954;2022-08-01T01:32:50;11.70;;;7.07;;
67930;SDS011;54726;52.000;5.954;2022-08-01T01:33:52;10.57;;;7.28;;
67930;SDS011;54726;52.000;5.954;2022-08-01T01:34:55;11.73;;;6.88;;
67930;SDS011;54726;52.000;5.954;2022-08-01T01:35:59;13.30;;;7.45;;
67930;SDS011;54726;52.000;5.954;2022-08-01T01:37:01;14.50;;;6.75;;
67930;SDS011;54726;52.000;5.954;2022-08-01T01:38:04;12.80;;;7.40;;
67930;SDS011;54726;52.000;5.954;2022-08-01T01:39:07;11.90;;;7.68;;
67930;SDS011;54726;52.000;5.954;2022-08-01T01:40:09;14.98;;;7.68;;
67930;SDS011;54726;52.000;5.954;2022-08-01T01:41:12;11.80;;;7.38;;
67930;SDS011;54726;52.000;5.954;2022-08-01T01:42:15;13.65;;;7.03;;
67930;SDS011;54726;52.000;5.954;2022-08-01T01:43:17;15.75;;;7.00;;
67930;SDS011;54726;52.000;5.954;2022-08-01T01:44:18;14.27;;;7.45;;
67930;SDS011;54726;52.000;5.954;2022-08-01T01:45:20;11.50;;;7.25;;
67930;SDS011;54726;52.000;5.954;2022-08-01T01:46:23;9.90;;;6.72;;
67930;SDS011;54726;52.000;5.954;2022-08-01T01:47:26;14.55;;;7.45;;
67930;SDS011;54726;52.000;5.954;2022-08-01T01:48:27;12.68;;;7.30;;
67930;SDS011;54726;52.000;5.954;2022-08-01T01:49:28;14.38;;;7.90;;
67930;SDS011;54726;52.000;5.954;2022-08-01T01:50:31;13.95;;;7.82;;
67930;SDS011;54726;52.000;5.954;2022-08-01T01:51:32;11.30;;;6.47;;
67930;SDS011;54726;52.000;5.954;2022-08-01T01:52:33;13.05;;;7.82;;
67930;SDS011;54726;52.000;5.954;2022-08-01T01:53:34;11.05;;;7.15;;
67930;SDS011;54726;52.000;5.954;2022-08-01T01:54:37;15.52;;;6.93;;
67930;SDS011;54726;52.000;5.954;2022-08-01T01:55:43;10.95;;;7.45;;
67930;SDS011;54726;52.000;5.954;2022-08-01T01:56:46;13.18;;;7.35;;
67930;SDS011;54726;52.000;5.954;2022-08-01T01:57:48;12.95;;;7.13;;
67930;SDS011;54726;52.000;5.954;2022-08-01T01:58:50;11.77;;;7.47;;
67930;SDS011;54726;52.000;5.954;2022-08-01T01:59:53;16.27;;;7.40;;
67930;SDS011;54726;52.000;5.954;2022-08-01T02:00:57;14.80;;;7.18;;
67930;SDS011;54726;52.000;5.954;2022-08-01T02:02:01;14.07;;;6.65;;
67930;SDS011;54726;52.000;5.954;2022-08-01T02:03:03;12.88;;;6.80;;
67930;SDS011;54726;52.000;5.954;2022-08-01T02:04:07;14.43;;;7.47;;
67930;SDS011;54726;52.000;5.954;2022-08-01T02:05:09;10.80;;;6.65;;
67930;SDS011;54726;52.000;5.954;2022-08-01T02:06:11;11.63;;;6.82;;
67930;SDS011;54726;52.000;5.954;2022-08-01T02:07:20;12.95;;;7.15;;
67930;SDS011;54726;52.000;5.954;2022-08-01T02:08:22;12.00;;;7.38;;
67930;SDS011;54726;52.000;5.954;2022-08-01T02:09:24;13.50;;;6.72;;
67930;SDS011;54726;52.000;5.954;2022-08-01T02:10:27;12.77;;;6.55;;
67930;SDS011;54726;52.000;5.954;2022-08-01T02:11:29;11.93;;;7.60;;
67930;SDS011;54726;52.000;5.954;2022-08-01T02:12:31;11.68;;;7.15;;
67930;SDS011;54726;52.000;5.954;2022-08-01T02:13:34;12.77;;;6.57;;
67930;SDS011;54726;52.000;5.954;2022-08-01T02:14:38;10.15;;;6.32;;
67930;SDS011;54726;52.000;5.954;2022-08-01T02:15:39;9.43;;;6.43;;
67930;SDS011;54726;52.000;5.954;2022-08-01T02:16:42;11.20;;;6.85;;
67930;SDS011;54726;52.000;5.954;2022-08-01T02:17:45;13.32;;;7.00;;
67930;SDS011;54726;52.000;5.954;2022-08-01T02:18:48;13.50;;;7.13;;
67930;SDS011;54726;52.000;5.954;2022-08-01T02:19:49;13.52;;;6.28;;
67930;SDS011;54726;52.000;5.954;2022-08-01T02:20:50;14.15;;;6.90;;
67930;SDS011;54726;52.000;5.954;2022-08-01T02:21:54;10.52;;;6.43;;
67930;SDS011;54726;52.000;5.954;2022-08-01T02:22:58;13.18;;;6.70;;
67930;SDS011;54726;52.000;5.954;2022-08-01T02:24:03;11.85;;;6.30;;
67930;SDS011;54726;52.000;5.954;2022-08-01T02:25:10;10.95;;;5.85;;
67930;SDS011;54726;52.000;5.954;2022-08-01T02:26:15;11.30;;;6.60;;
67930;SDS011;54726;52.000;5.954;2022-08-01T02:27:20;11.60;;;6.40;;
67930;SDS011;54726;52.000;5.954;2022-08-01T02:28:24;12.82;;;7.07;;
67930;SDS011;54726;52.000;5.954;2022-08-01T02:29:31;10.23;;;5.97;;
67930;SDS011;54726;52.000;5.954;2022-08-01T02:30:38;8.85;;;6.20;;
67930;SDS011;54726;52.000;5.954;2022-08-01T02:31:43;12.40;;;6.35;;
67930;SDS011;54726;52.000;5.954;2022-08-01T02:32:47;11.27;;;5.85;;
67930;SDS011;54726;52.000;5.954;2022-08-01T02:33:53;11.88;;;6.07;;
67930;SDS011;54726;52.000;5.954;2022-08-01T02:34:57;11.07;;;6.60;;
67930;SDS011;54726;52.000;5.954;2022-08-01T02:36:01;13.50;;;5.75;;
67930;SDS011;54726;52.000;5.954;2022-08-01T02:37:03;12.48;;;6.90;;
67930;SDS011;54726;52.000;5.954;2022-08-01T02:38:05;11.68;;;6.25;;
67930;SDS011;54726;52.000;5.954;2022-08-01T02:39:09;11.85;;;6.18;;
67930;SDS011;54726;52.000;5.954;2022-08-01T02:40:12;10.00;;;6.05;;
67930;SDS011;54726;52.000;5.954;2022-08-01T02:41:16;9.68;;;5.95;;
67930;SDS011;54726;52.000;5.954;2022-08-01T02:42:20;13.00;;;5.95;;
67930;SDS011;54726;52.000;5.954;2022-08-01T02:43:25;9.55;;;5.72;;
67930;SDS011;54726;52.000;5.954;2022-08-01T02:44:29;10.02;;;6.57;;
67930;SDS011;54726;52.000;5.954;2022-08-01T02:45:32;10.35;;;5.95;;
67930;SDS011;54726;52.000;5.954;2022-08-01T02:46:36;10.45;;;6.05;;
67930;SDS011;54726;52.000;5.954;2022-08-01T02:47:41;8.73;;;5.28;;
67930;SDS011;54726;52.000;5.954;2022-08-01T02:48:42;9.02;;;5.65;;
67930;SDS011;54726;52.000;5.954;2022-08-01T02:49:45;8.70;;;5.55;;
67930;SDS011;54726;52.000;5.954;2022-08-01T02:50:47;9.25;;;5.68;;
67930;SDS011;54726;52.000;5.954;2022-08-01T02:51:49;9.02;;;5.28;;
67930;SDS011;54726;52.000;5.954;2022-08-01T02:52:53;7.82;;;5.32;;
67930;SDS011;54726;52.000;5.954;2022-08-01T02:53:55;8.50;;;5.15;;
67930;SDS011;54726;52.000;5.954;2022-08-01T02:54:58;11.60;;;5.47;;
67930;SDS011;54726;52.000;5.954;2022-08-01T02:56:01;8.85;;;5.25;;
67930;SDS011;54726;52.000;5.954;2022-08-01T02:57:04;9.88;;;5.45;;
67930;SDS011;54726;52.000;5.954;2022-08-01T02:58:07;7.57;;;5.05;;
67930;SDS011;54726;52.000;5.954;2022-08-01T02:59:12;8.55;;;4.97;;
67930;SDS011;54726;52.000;5.954;2022-08-01T03:00:15;7.32;;;4.72;;
67930;SDS011;54726;52.000;5.954;2022-08-01T03:01:16;8.48;;;5.32;;
67930;SDS011;54726;52.000;5.954;2022-08-01T03:02:17;7.85;;;4.93;;
67930;SDS011;54726;52.000;5.954;2022-08-01T03:03:21;8.90;;;5.10;;
67930;SDS011;54726;52.000;5.954;2022-08-01T03:04:21;6.05;;;3.92;;
67930;SDS011;54726;52.000;5.954;2022-08-01T03:05:24;6.28;;;4.00;;
67930;SDS011;54726;52.000;5.954;2022-08-01T03:06:25;6.88;;;4.03;;
67930;SDS011;54726;52.000;5.954;2022-08-01T03:07:27;6.40;;;3.80;;
67930;SDS011;54726;52.000;5.954;2022-08-01T03:08:29;7.35;;;4.00;;
67930;SDS011;54726;52.000;5.954;2022-08-01T03:09:32;5.30;;;3.95;;
67930;SDS011;54726;52.000;5.954;2022-08-01T03:10:36;6.53;;;4.00;;
67930;SDS011;54726;52.000;5.954;2022-08-01T03:11:39;7.13;;;4.50;;
67930;SDS011;54726;52.000;5.954;2022-08-01T03:12:42;7.57;;;4.13;;
67930;SDS011;54726;52.000;5.954;2022-08-01T03:13:44;6.15;;;4.10;;
67930;SDS011;54726;52.000;5.954;2022-08-01T03:14:47;7.07;;;4.35;;
67930;SDS011;54726;52.000;5.954;2022-08-01T03:15:51;6.30;;;4.13;;
67930;SDS011;54726;52.000;5.954;2022-08-01T03:16:53;7.53;;;4.22;;
67930;SDS011;54726;52.000;5.954;2022-08-01T03:17:56;8.70;;;4.45;;
67930;SDS011;54726;52.000;5.954;2022-08-01T03:19:00;7.85;;;4.45;;
67930;SDS011;54726;52.000;5.954;2022-08-01T03:20:02;6.57;;;3.80;;
67930;SDS011;54726;52.000;5.954;2022-08-01T03:21:04;7.05;;;3.78;;
67930;SDS011;54726;52.000;5.954;2022-08-01T03:22:07;6.57;;;3.45;;
67930;SDS011;54726;52.000;5.954;2022-08-01T03:23:11;6.18;;;3.50;;
67930;SDS011;54726;52.000;5.954;2022-08-01T03:24:12;5.10;;;3.50;;
67930;SDS011;54726;52.000;5.954;2022-08-01T03:25:15;5.22;;;3.20;;
67930;SDS011;54726;52.000;5.954;2022-08-01T03:26:16;5.55;;;3.58;;
67930;SDS011;54726;52.000;5.954;2022-08-01T03:27:18;5.25;;;2.80;;
67930;SDS011;54726;52.000;5.954;2022-08-01T03:28:20;5.20;;;3.03;;
67930;SDS011;54726;52.000;5.954;2022-08-01T03:29:22;4.32;;;2.80;;
67930;SDS011;54726;52.000;5.954;2022-08-01T03:30:25;5.13;;;2.88;;
67930;SDS011;54726;52.000;5.954;2022-08-01T03:31:27;3.78;;;2.75;;
67930;SDS011;54726;52.000;5.954;2022-08-01T03:32:29;4.60;;;2.83;;
67930;SDS011;54726;52.000;5.954;2022-08-01T03:33:30;3.67;;;2.60;;
67930;SDS011;54726;52.000;5.954;2022-08-01T03:34:32;3.45;;;2.17;;
67930;SDS011;54726;52.000;5.954;2022-08-01T03:35:34;16.02;;;2.55;;
67930;SDS011;54726;52.000;5.954;2022-08-01T03:36:39;4.38;;;2.30;;
67930;SDS011;54726;52.000;5.954;2022-08-01T03:37:45;6.25;;;2.40;;
67930;SDS011;54726;52.000;5.954;2022-08-01T03:38:47;3.72;;;2.53;;
67930;SDS011;54726;52.000;5.954;2022-08-01T03:39:52;3.55;;;2.10;;
67930;SDS011;54726;52.000;5.954;2022-08-01T03:40:59;4.35;;;2.30;;
67930;SDS011;54726;52.000;5.954;2022-08-01T03:42:05;3.33;;;2.03;;
67930;SDS011;54726;52.000;5.954;2022-08-01T03:43:13;3.83;;;2.17;;
67930;SDS011;54726;52.000;5.954;2022-08-01T03:44:20;3.25;;;2.10;;
67930;SDS011;54726;52.000;5.954;2022-08-01T03:45:27;5.35;;;2.08;;
67930;SDS011;54726;52.000;5.954;2022-08-01T03:46:36;2.40;;;1.70;;
67930;SDS011;54726;52.000;5.954;2022-08-01T03:47:42;4.78;;;1.92;;
67930;SDS011;54726;52.000;5.954;2022-08-01T03:48:48;5.20;;;2.35;;
67930;SDS011;54726;52.000;5.954;2022-08-01T03:49:54;3.53;;;2.03;;
67930;SDS011;54726;52.000;5.954;2022-08-01T03:50:56;2.70;;;1.80;;
67930;SDS011;54726;52.000;5.954;2022-08-01T03:51:59;5.68;;;2.22;;
67930;SDS011;54726;52.000;5.954;2022-08-01T03:53:02;5.25;;;2.17;;
67930;SDS011;54726;52.000;5.954;2022-08-01T03:54:06;5.20;;;2.53;;
67930;SDS011;54726;52.000;5.954;2022-08-01T03:55:08;3.13;;;1.80;;
67930;SDS011;54726;52.000;5.954;2022-08-01T03:56:10;3.92;;;1.92;;
67930;SDS011;54726;52.000;5.954;2022-08-01T03:57:16;3.50;;;2.13;;
67930;SDS011;54726;52.000;5.954;2022-08-01T03:58:18;5.10;;;2.33;;
67930;SDS011;54726;52.000;5.954;2022-08-01T03:59:20;5.22;;;1.98;;
67930;SDS011;54726;52.000;5.954;2022-08-01T04:00:21;2.90;;;1.70;;
67930;SDS011;54726;52.000;5.954;2022-08-01T04:01:23;4.75;;;2.13;;
67930;SDS011;54726;52.000;5.954;2022-08-01T04:02:24;4.53;;;2.05;;
67930;SDS011;54726;52.000;5.954;2022-08-01T04:03:25;3.35;;;1.83;;
67930;SDS011;54726;52.000;5.954;2022-08-01T04:04:26;3.20;;;2.30;;
67930;SDS011;54726;52.000;5.954;2022-08-01T04:05:29;8.02;;;2.15;;
67930;SDS011;54726;52.000;5.954;2022-08-01T04:06:29;3.95;;;2.25;;
67930;SDS011;54726;52.000;5.954;2022-08-01T04:07:31;3.92;;;2.20;;
67930;SDS011;54726;52.000;5.954;2022-08-01T04:08:36;4.13;;;2.20;;
67930;SDS011;54726;52.000;5.954;2022-08-01T04:09:37;3.55;;;2.03;;
67930;SDS011;54726;52.000;5.954;2022-08-01T04:10:37;3.63;;;2.13;;
67930;SDS011;54726;52.000;5.954;2022-08-01T04:11:38;5.45;;;2.67;;
67930;SDS011;54726;52.000;5.954;2022-08-01T04:12:38;3.58;;;2.40;;
67930;SDS011;54726;52.000;5.954;2022-08-01T04:13:39;3.40;;;2.50;;
67930;SDS011;54726;52.000;5.954;2022-08-01T04:14:39;4.05;;;2.15;;
67930;SDS011;54726;52.000;5.954;2022-08-01T04:15:40;3.40;;;2.13;;
67930;SDS011;54726;52.000;5.954;2022-08-01T04:16:40;3.78;;;2.42;;
67930;SDS011;54726;52.000;5.954;2022-08-01T04:17:41;3.70;;;2.50;;
67930;SDS011;54726;52.000;5.954;2022-08-01T04:18:41;7.22;;;3.05;;
67930;SDS011;54726;52.000;5.954;2022-08-01T04:19:41;5.60;;;2.63;;
67930;SDS011;54726;52.000;5.954;2022-08-01T04:20:45;3.38;;;2.63;;
67930;SDS011;54726;52.000;5.954;2022-08-01T04:21:46;4.25;;;2.53;;
67930;SDS011;54726;52.000;5.954;2022-08-01T04:22:47;5.95;;;2.70;;
67930;SDS011;54726;52.000;5.954;2022-08-01T04:23:47;6.30;;;3.72;;
67930;SDS011;54726;52.000;5.954;2022-08-01T04:24:50;4.68;;;2.88;;
67930;SDS011;54726;52.000;5.954;2022-08-01T04:25:55;4.03;;;2.60;;
67930;SDS011;54726;52.000;5.954;2022-08-01T04:26:56;4.50;;;2.65;;
67930;SDS011;54726;52.000;5.954;2022-08-01T04:28:00;4.93;;;3.08;;
67930;SDS011;54726;52.000;5.954;2022-08-01T04:29:01;3.92;;;2.55;;
67930;SDS011;54726;52.000;5.954;2022-08-01T04:30:04;3.65;;;2.65;;
67930;SDS011;54726;52.000;5.954;2022-08-01T04:31:08;5.03;;;2.70;;
67930;SDS011;54726;52.000;5.954;2022-08-01T04:32:11;4.47;;;2.78;;
67930;SDS011;54726;52.000;5.954;2022-08-01T04:33:14;6.05;;;2.97;;
67930;SDS011;54726;52.000;5.954;2022-08-01T04:34:17;4.68;;;3.03;;
67930;SDS011;54726;52.000;5.954;2022-08-01T04:35:21;5.18;;;3.03;;
67930;SDS011;54726;52.000;5.954;2022-08-01T04:36:23;5.20;;;3.22;;
67930;SDS011;54726;52.000;5.954;2022-08-01T04:37:25;6.03;;;3.30;;
67930;SDS011;54726;52.000;5.954;2022-08-01T04:38:27;5.38;;;2.85;;
67930;SDS011;54726;52.000;5.954;2022-08-01T04:39:30;5.82;;;3.30;;
67930;SDS011;54726;52.000;5.954;2022-08-01T04:40:34;6.15;;;3.40;;
67930;SDS011;54726;52.000;5.954;2022-08-01T04:41:35;4.60;;;3.20;;
67930;SDS011;54726;52.000;5.954;2022-08-01T04:42:37;5.28;;;2.97;;
67930;SDS011;54726;52.000;5.954;2022-08-01T04:43:38;4.38;;;2.65;;
67930;SDS011;54726;52.000;5.954;2022-08-01T04:44:39;5.63;;;3.05;;
67930;SDS011;54726;52.000;5.954;2022-08-01T04:45:39;6.40;;;3.42;;
67930;SDS011;54726;52.000;5.954;2022-08-01T04:46:41;6.53;;;3.75;;
67930;SDS011;54726;52.000;5.954;2022-08-01T04:47:42;7.55;;;3.30;;
67930;SDS011;54726;52.000;5.954;2022-08-01T04:48:43;7.53;;;3.78;;
67930;SDS011;54726;52.000;5.954;2022-08-01T04:49:45;7.30;;;3.78;;
67930;SDS011;54726;52.000;5.954;2022-08-01T04:50:46;5.85;;;3.90;;
67930;SDS011;54726;52.000;5.954;2022-08-01T04:51:51;9.00;;;4.43;;
67930;SDS011;54726;52.000;5.954;2022-08-01T04:52:52;5.82;;;3.80;;
67930;SDS011;54726;52.000;5.954;2022-08-01T04:53:53;8.88;;;3.97;;
67930;SDS011;54726;52.000;5.954;2022-08-01T04:54:53;7.97;;;3.53;;
67930;SDS011;54726;52.000;5.954;2022-08-01T04:55:54;5.90;;;3.88;;
67930;SDS011;54726;52.000;5.954;2022-08-01T04:56:54;7.68;;;3.90;;
67930;SDS011;54726;52.000;5.954;2022-08-01T04:57:55;8.38;;;4.45;;
67930;SDS011;54726;52.000;5.954;2022-08-01T04:58:56;7.43;;;3.88;;
67930;SDS011;54726;52.000;5.954;2022-08-01T04:59:56;5.63;;;3.75;;
67930;SDS011;54726;52.000;5.954;2022-08-01T05:00:57;5.90;;;4.10;;
67930;SDS011;54726;52.000;5.954;2022-08-01T05:01:57;6.05;;;4.05;;
67930;SDS011;54726;52.000;5.954;2022-08-01T05:02:57;6.65;;;3.75;;
67930;SDS011;54726;52.000;5.954;2022-08-01T05:03:58;8.45;;;4.10;;
67930;SDS011;54726;52.000;5.954;2022-08-01T05:04:58;6.45;;;4.07;;
67930;SDS011;54726;52.000;5.954;2022-08-01T05:05:59;5.40;;;3.60;;
67930;SDS011;54726;52.000;5.954;2022-08-01T05:07:00;6.28;;;4.10;;
67930;SDS011;54726;52.000;5.954;2022-08-01T05:08:01;7.47;;;4.00;;
67930;SDS011;54726;52.000;5.954;2022-08-01T05:09:02;6.60;;;3.92;;
67930;SDS011;54726;52.000;5.954;2022-08-01T05:10:03;12.50;;;4.88;;
67930;SDS011;54726;52.000;5.954;2022-08-01T05:11:04;7.50;;;4.43;;
67930;SDS011;54726;52.000;5.954;2022-08-01T05:12:05;8.38;;;3.60;;
67930;SDS011;54726;52.000;5.954;2022-08-01T05:13:06;5.80;;;3.85;;
67930;SDS011;54726;52.000;5.954;2022-08-01T05:14:06;7.43;;;4.10;;
67930;SDS011;54726;52.000;5.954;2022-08-01T05:15:07;7.90;;;4.32;;
67930;SDS011;54726;52.000;5.954;2022-08-01T05:16:08;6.70;;;4.38;;
67930;SDS011;54726;52.000;5.954;2022-08-01T05:17:08;6.85;;;4.38;;
67930;SDS011;54726;52.000;5.954;2022-08-01T05:18:10;7.38;;;4.30;;
67930;SDS011;54726;52.000;5.954;2022-08-01T05:19:10;6.22;;;4.07;;
67930;SDS011;54726;52.000;5.954;2022-08-01T05:20:11;5.93;;;3.92;;
67930;SDS011;54726;52.000;5.954;2022-08-01T05:21:11;8.57;;;4.30;;
67930;SDS011;54726;52.000;5.954;2022-08-01T05:22:13;5.65;;;3.80;;
67930;SDS011;54726;52.000;5.954;2022-08-01T05:23:14;8.73;;;4.03;;
67930;SDS011;54726;52.000;5.954;2022-08-01T05:24:14;4.90;;;3.60;;
67930;SDS011;54726;52.000;5.954;2022-08-01T05:25:15;7.57;;;4.15;;
67930;SDS011;54726;52.000;5.954;2022-08-01T05:26:15;7.63;;;3.95;;
67930;SDS011;54726;52.000;5.954;2022-08-01T05:27:15;8.45;;;4.13;;
67930;SDS011;54726;52.000;5.954;2022-08-01T05:28:16;5.57;;;3.90;;
67930;SDS011;54726;52.000;5.954;2022-08-01T05:29:16;6.03;;;4.13;;
67930;SDS011;54726;52.000;5.954;2022-08-01T05:30:17;8.43;;;4.18;;
67930;SDS011;54726;52.000;5.954;2022-08-01T05:31:17;8.27;;;4.43;;
67930;SDS011;54726;52.000;5.954;2022-08-01T05:32:18;5.88;;;4.03;;
67930;SDS011;54726;52.000;5.954;2022-08-01T05:33:18;7.40;;;4.05;;
67930;SDS011;54726;52.000;5.954;2022-08-01T05:34:19;6.75;;;4.47;;
67930;SDS011;54726;52.000;5.954;2022-08-01T05:35:19;9.23;;;4.60;;
67930;SDS011;54726;52.000;5.954;2022-08-01T05:36:20;7.95;;;4.57;;
67930;SDS011;54726;52.000;5.954;2022-08-01T05:37:22;8.13;;;4.00;;
67930;SDS011;54726;52.000;5.954;2022-08-01T05:38:22;7.50;;;4.22;;
67930;SDS011;54726;52.000;5.954;2022-08-01T05:39:22;7.13;;;4.63;;
67930;SDS011;54726;52.000;5.954;2022-08-01T05:40:23;6.55;;;4.28;;
67930;SDS011;54726;52.000;5.954;2022-08-01T05:41:23;9.73;;;4.38;;
67930;SDS011;54726;52.000;5.954;2022-08-01T05:42:24;5.90;;;3.88;;
67930;SDS011;54726;52.000;5.954;2022-08-01T05:43:24;6.97;;;4.90;;
67930;SDS011;54726;52.000;5.954;2022-08-01T05:44:25;7.88;;;4.40;;
67930;SDS011;54726;52.000;5.954;2022-08-01T05:45:25;7.88;;;4.32;;
67930;SDS011;54726;52.000;5.954;2022-08-01T05:46:26;5.45;;;4.03;;
67930;SDS011;54726;52.000;5.954;2022-08-01T05:47:26;8.15;;;3.92;;
67930;SDS011;54726;52.000;5.954;2022-08-01T05:48:27;10.85;;;4.18;;
67930;SDS011;54726;52.000;5.954;2022-08-01T05:49:27;6.28;;;4.15;;
67930;SDS011;54726;52.000;5.954;2022-08-01T05:50:28;9.60;;;4.75;;
67930;SDS011;54726;52.000;5.954;2022-08-01T05:51:28;7.07;;;4.72;;
67930;SDS011;54726;52.000;5.954;2022-08-01T05:52:30;8.95;;;4.47;;
67930;SDS011;54726;52.000;5.954;2022-08-01T05:53:30;8.13;;;4.10;;
67930;SDS011;54726;52.000;5.954;2022-08-01T05:54:31;8.43;;;4.47;;
67930;SDS011;54726;52.000;5.954;2022-08-01T05:55:31;5.45;;;3.90;;
67930;SDS011;54726;52.000;5.954;2022-08-01T05:56:32;7.00;;;4.30;;
67930;SDS011;54726;52.000;5.954;2022-08-01T05:57:32;7.85;;;4.72;;
67930;SDS011;54726;52.000;5.954;2022-08-01T05:58:32;7.60;;;4.10;;
67930;SDS011;54726;52.000;5.954;2022-08-01T05:59:33;6.38;;;3.80;;
67930;SDS011;54726;52.000;5.954;2022-08-01T06:00:33;7.47;;;4.20;;
67930;SDS011;54726;52.000;5.954;2022-08-01T06:01:34;5.75;;;3.83;;
67930;SDS011;54726;52.000;5.954;2022-08-01T06:02:34;6.97;;;4.15;;
67930;SDS011;54726;52.000;5.954;2022-08-01T06:03:40;5.07;;;3.33;;
67930;SDS011;54726;52.000;5.954;2022-08-01T06:04:41;7.75;;;3.88;;
67930;SDS011;54726;52.000;5.954;2022-08-01T06:05:41;4.70;;;3.40;;
67930;SDS011;54726;52.000;5.954;2022-08-01T06:06:41;5.45;;;3.75;;
67930;SDS011;54726;52.000;5.954;2022-08-01T06:07:43;4.82;;;3.03;;
67930;SDS011;54726;52.000;5.954;2022-08-01T06:08:44;4.80;;;3.38;;
67930;SDS011;54726;52.000;5.954;2022-08-01T06:09:44;4.25;;;2.83;;
67930;SDS011;54726;52.000;5.954;2022-08-01T06:10:44;5.32;;;2.90;;
67930;SDS011;54726;52.000;5.954;2022-08-01T06:11:45;3.67;;;2.80;;
67930;SDS011;54726;52.000;5.954;2022-08-01T06:12:45;4.25;;;3.00;;
67930;SDS011;54726;52.000;5.954;2022-08-01T06:13:46;4.80;;;2.70;;